Time;durP1;ratioP1;P1;durP2;ratioP2;P2;SDS_P1;SDS_P2;PMS_P1;PMS_P2;Temp;Humidity;BMP_temperature;BMP_pressure;BME280_temperature;BME280_humidity;BME280_pressure;Samples;Min_cycle;Max_cycle;Signal;HPM_P1;HPM_P2
2022/12/17 13:06:38;;;;;;;;;;;;;;;17.33;63.58;98783.91;2058880;28;19945;-74
2022/12/17 13:07:39;;;;;;;;;;;;;;;17.31;63.43;98785.94;2060674;28;19929;-73
2022/12/17 13:08:40;;;;;;;;;;;;;;;17.32;63.71;98792.13;2052471;28;21211;-75
2022/12/17 13:09:46;;;;;;;;;;;;;;;17.32;63.39;98792.13;2074276;28;20491;-73
2022/12/17 13:10:49;;;;;;;;;;;;;;;17.32;63.39;98792.13;2082756;28;20765;-73
2022/12/17 13:11:54;;;;;;;;;;;;;;;17.32;63.61;98786.78;2073253;28;20016;-73
2022/12/17 13:12:56;;;;;;;;;;;;;;;17.31;63.55;98791.31;2080680;28;19929;-73
2022/12/17 13:13:59;;;;;;;;;;;;;;;17.28;63.66;98791.69;2075648;28;19931;-73
2022/12/17 13:15:10;;;;;;;;;;;;;;;17.30;63.66;98791.50;2083955;28;19921;-72
2022/12/17 13:16:21;;;;;;;;;;;;;;;17.30;63.68;98788.81;2079835;28;19936;-72
2022/12/17 13:17:30;;;;;;;;;;;;;;;17.30;63.64;98796.84;2080966;28;19928;-71
2022/12/17 13:18:33;;;;;;;;;;;;;;;17.30;63.54;98795.03;2079474;28;19928;-73
2022/12/17 13:19:35;;;;;;;;;;;;;;;17.29;63.68;98796.03;2080127;28;19928;-72
2022/12/17 13:20:37;;;;;;;;;;;;;;;17.28;63.71;98798.91;2079025;28;20345;-71
2022/12/17 13:21:38;;;;;;;;;;;;;;;17.30;63.61;98797.69;2068598;28;20180;-74
2022/12/17 13:22:48;;;;;;;;;;;;;;;17.29;63.66;98804.06;2078800;28;20621;-74
2022/12/17 13:23:49;;;;;;;;;;;;;;;17.30;63.71;98802.22;2079116;28;19927;-73
2022/12/17 13:24:51;;;;;;;;;;;;;;;17.28;63.59;98797.06;2078431;28;19928;-73
2022/12/17 13:26:02;;;;;;;;;;;;;;;17.28;63.64;98797.06;2081582;28;20403;-73
2022/12/17 13:27:05;;;;;;;;;;;;;;;17.30;63.62;98803.06;2082471;28;19924;-72
2022/12/17 13:28:25;;;;;;;;;;;;;;;17.29;63.59;98801.38;2080754;28;20291;-72
2022/12/17 13:29:28;;;;;;;;;;;;;;;17.30;63.43;98799.53;2078872;28;19928;-72
2022/12/17 13:30:31;;;;;;;;;;;;;;;17.32;63.49;98808.22;2078331;28;20035;-74
2022/12/17 13:31:44;;;;;;;;;;;;;;;17.30;63.55;98803.06;2079318;28;20420;-72
2022/12/17 13:32:49;;;;;;;;;;;;;;;17.29;63.68;98809.44;2076074;28;19924;-74
2022/12/17 13:33:55;;;;;;;;;;;;;;;17.29;63.59;98804.06;2075246;28;19921;-74
2022/12/17 13:35:05;;;;;;;;;;;;;;;17.28;63.62;98804.28;2075615;28;19974;-74
2022/12/17 13:36:11;;;;;;;;;;;;;;;17.29;63.67;98808.59;2076577;28;20021;-72
2022/12/17 13:37:18;;;;;;;;;;;;;;;17.28;63.74;98817.69;2079452;28;19931;-73
2022/12/17 13:38:25;;;;;;;;;;;;;;;17.25;63.60;98813.53;2078097;28;20262;-74
2022/12/17 13:39:35;;;;;;;;;;;;;;;17.24;63.78;98811.84;2072331;28;20297;-73
2022/12/17 13:40:40;;;;;;;;;;;;;;;17.26;63.71;98815.16;2075641;28;19924;-73
2022/12/17 13:41:41;;;;;;;;;;;;;;;17.24;63.75;98813.69;2075804;28;19921;-74
2022/12/17 13:42:44;;;;;;;;;;;;;;;17.25;63.74;98812.69;2078589;28;19989;-73
2022/12/17 13:43:47;;;;;;;;;;;;;;;17.27;63.66;98816.81;2076295;28;19928;-75
2022/12/17 13:44:47;;;;;;;;;;;;;;;17.27;63.74;98813.31;2078705;28;19929;-76
2022/12/17 13:45:50;;;;;;;;;;;;;;;17.27;63.77;98811.47;2077836;28;20599;-74
2022/12/17 13:46:53;;;;;;;;;;;;;;;17.26;63.72;98817.03;2076725;28;19920;-75
2022/12/17 13:47:55;;;;;;;;;;;;;;;17.24;63.93;98817.19;2077341;28;20488;-73
2022/12/17 13:48:57;;;;;;;;;;;;;;;17.19;63.96;98820.47;2078600;28;19931;-73
2022/12/17 13:49:59;;;;;;;;;;;;;;;17.19;64.00;98823.16;2078728;28;20889;-73
2022/12/17 13:51:01;;;;;;;;;;;;;;;17.20;63.97;98821.31;2077536;28;19924;-74
2022/12/17 13:52:04;;;;;;;;;;;;;;;17.23;63.83;98820.91;2079240;28;19950;-76
2022/12/17 13:53:09;;;;;;;;;;;;;;;17.25;63.63;98821.56;2079463;28;19944;-75
2022/12/17 13:54:14;;;;;;;;;;;;;;;17.25;63.75;98818.88;2079288;28;20836;-74
2022/12/17 13:55:17;;;;;;;;;;;;;;;17.24;63.73;98824.41;2079458;28;19978;-73
2022/12/17 13:56:22;;;;;;;;;;;;;;;17.22;63.95;98826.44;2077898;28;20071;-74
2022/12/17 13:57:25;;;;;;;;;;;;;;;17.22;63.60;98823.78;2075607;28;19936;-72
2022/12/17 13:58:26;;;;;;;;;;;;;;;17.22;63.71;98823.78;2076279;28;19924;-73
2022/12/17 13:59:28;;;;;;;;;;;;;;;17.23;63.77;98822.78;2078291;28;20638;-75
2022/12/17 14:00:31;;;;;;;;;;;;;;;17.20;63.94;98827.47;2078752;28;19939;-73
2022/12/17 14:01:33;;;;;;;;;;;;;;;17.22;63.86;98831.81;2077608;28;19936;-73
2022/12/17 14:02:37;;;;;;;;;;;;;;;17.23;63.67;98833.50;2076638;28;20385;-76
2022/12/17 14:03:39;;;;;;;;;;;;;;;17.21;63.71;98828.31;2077888;28;19990;-73
2022/12/17 14:04:39;;;;;;;;;;;;;;;17.21;63.73;98844.41;2075072;28;20492;-72
2022/12/17 14:05:43;;;;;;;;;;;;;;;17.22;63.93;98838.03;2080289;28;20018;-73
2022/12/17 14:06:45;;;;;;;;;;;;;;;17.22;63.88;98845.22;2079235;28;21336;-73
2022/12/17 14:07:46;;;;;;;;;;;;;;;17.19;63.80;98836.56;2079803;28;19981;-74
2022/12/17 14:08:49;;;;;;;;;;;;;;;17.20;63.90;98840.06;2077289;28;19971;-74
2022/12/17 14:09:51;;;;;;;;;;;;;;;17.19;63.78;98841.91;2075582;28;22663;-74
2022/12/17 14:12:20;;;;;;;;;;;;;;;17.18;63.86;98845.59;2074068;28;19936;-73
2022/12/17 14:12:23;;;;;;;;;;;;;;;17.17;63.97;98840.44;2072204;28;20052;-73
2022/12/17 14:13:25;;;;;;;;;;;;;;;17.17;63.92;98843.94;2075888;28;19960;-72
2022/12/17 14:14:27;;;;;;;;;;;;;;;17.17;64.04;98843.94;2074274;28;19929;-72
2022/12/17 14:15:30;;;;;;;;;;;;;;;17.18;63.78;98842.91;2078169;28;19936;-71
2022/12/17 14:16:31;;;;;;;;;;;;;;;17.20;63.86;98838.22;2079597;28;19928;-72
2022/12/17 14:17:38;;;;;;;;;;;;;;;17.16;63.81;98839.63;2077215;28;21051;-72
2022/12/17 14:18:40;;;;;;;;;;;;;;;17.17;63.93;98840.44;2077303;28;19974;-72
2022/12/17 14:19:42;;;;;;;;;;;;;;;17.15;63.92;98837.94;2077848;28;21779;-72
2022/12/17 14:20:43;;;;;;;;;;;;;;;17.14;63.93;98841.66;2075032;28;20479;-73
2022/12/17 14:21:44;;;;;;;;;;;;;;;17.17;63.95;98838.59;2075533;28;19925;-73
2022/12/17 14:22:47;;;;;;;;;;;;;;;17.17;63.78;98840.44;2073111;28;20693;-73
2022/12/17 14:23:49;;;;;;;;;;;;;;;17.16;64.08;98836.09;2075228;28;20047;-71
2022/12/17 14:24:51;;;;;;;;;;;;;;;17.16;63.86;98839.63;2076584;28;20016;-73
2022/12/17 14:25:52;;;;;;;;;;;;;;;17.13;63.91;98837.31;2078068;28;19948;-73
2022/12/17 14:26:54;;;;;;;;;;;;;;;17.14;63.87;98841.66;2076722;28;19929;-73
2022/12/17 14:27:56;;;;;;;;;;;;;;;17.13;64.06;98841.81;2074375;28;20024;-73
2022/12/17 14:28:57;;;;;;;;;;;;;;;17.13;63.86;98841.81;2076814;28;19935;-72
2022/12/17 14:29:58;;;;;;;;;;;;;;;17.12;64.00;98846.34;2071114;28;19929;-72
2022/12/17 14:31:07;;;;;;;;;;;;;;;17.12;63.88;98843.69;2075092;28;19920;-71
2022/12/17 14:32:20;;;;;;;;;;;;;;;17.11;64.04;98844.72;2071793;28;19993;-72
2022/12/17 14:33:28;;;;;;;;;;;;;;;17.14;64.14;98844.34;2074415;28;20649;-76
2022/12/17 14:34:39;;;;;;;;;;;;;;;17.23;63.97;98845.03;2073751;28;20497;-72
2022/12/17 14:35:41;;;;;;;;;;;;;;;17.29;63.74;98848.81;2075117;28;19925;-74
2022/12/17 14:36:42;;;;;;;;;;;;;;;17.28;63.84;98848.00;2073963;28;20185;-73
2022/12/17 14:37:46;;;;;;;;;;;;;;;17.33;63.72;98853.63;2072145;28;20356;-73
2022/12/17 14:38:52;;;;;;;;;;;;;;;17.38;63.85;98858.38;2071606;28;20011;-73
2022/12/17 14:39:56;;;;;;;;;;;;;;;17.35;63.72;98859.59;2076422;28;19928;-73
2022/12/17 14:41:01;;;;;;;;;;;;;;;17.34;63.64;98854.44;2074115;28;19998;-72
2022/12/17 14:42:25;;;;;;;;;;;;;;;17.29;63.86;98864.91;2073190;28;19925;-73
2022/12/17 14:43:28;;;;;;;;;;;;;;;17.29;63.91;98873.78;2076034;28;19959;-74
2022/12/17 14:44:30;;;;;;;;;;;;;;;17.24;63.97;98862.78;2074530;28;19947;-74
2022/12/17 14:46:18;;;;;;;;;;;;;;;17.24;64.05;98872.66;2072881;28;19959;-73
2022/12/17 14:47:05;;;;;;;;;;;;;;;17.17;64.12;98873.44;2072837;28;20015;-75
2022/12/17 14:48:15;;;;;;;;;;;;;;;17.16;64.29;98878.97;2077554;28;19925;-72
2022/12/17 14:49:19;;;;;;;;;;;;;;;17.17;64.22;98880.66;2078816;28;19989;-74
2022/12/17 14:50:26;;;;;;;;;;;;;;;17.13;64.30;98879.34;2075882;28;19925;-75
2022/12/17 14:51:28;;;;;;;;;;;;;;;17.12;64.22;98883.06;2078160;28;19943;-74
2022/12/17 14:52:34;;;;;;;;;;;;;;;17.12;64.31;98883.06;2067368;28;19940;-75
2022/12/17 14:53:36;;;;;;;;;;;;;;;17.10;64.40;98882.41;2076157;28;19944;-74
2022/12/17 14:54:43;;;;;;;;;;;;;;;17.09;64.33;98884.25;2076151;28;19974;-75
2022/12/17 14:55:52;;;;;;;;;;;;;;;17.09;64.23;98886.94;2076718;28;19925;-74
2022/12/17 14:56:53;;;;;;;;;;;;;;;17.09;64.37;98884.25;2072516;28;20026;-74
2022/12/17 14:58:07;;;;;;;;;;;;;;;17.09;64.25;98889.63;2069903;28;21127;-75
2022/12/17 14:59:22;;;;;;;;;;;;;;;17.07;64.46;98885.47;2076633;28;20791;-73
2022/12/17 15:00:23;;;;;;;;;;;;;;;17.08;64.62;98890.66;2077964;28;20350;-73
2022/12/17 15:01:24;;;;;;;;;;;;;;;17.08;64.33;98885.28;2077389;28;20023;-74
2022/12/17 15:02:27;;;;;;;;;;;;;;;17.07;64.29;98891.66;2075615;28;19928;-74
2022/12/17 15:03:30;;;;;;;;;;;;;;;17.08;64.37;98890.66;2070840;28;19928;-72
2022/12/17 15:04:33;;;;;;;;;;;;;;;17.05;64.57;98890.16;2080510;28;20066;-74
2022/12/17 15:05:34;;;;;;;;;;;;;;;17.04;64.47;98897.38;2078320;28;19929;-73
2022/12/17 15:06:35;;;;;;;;;;;;;;;17.08;64.46;98893.31;2077796;28;19986;-73
2022/12/17 15:07:36;;;;;;;;;;;;;;;17.08;64.34;98903.22;2079143;28;19924;-73
2022/12/17 15:08:40;;;;;;;;;;;;;;;17.10;64.25;98895.81;2076925;28;20001;-72
2022/12/17 15:09:41;;;;;;;;;;;;;;;17.11;64.32;98902.84;2074173;28;19929;-74
2022/12/17 15:10:42;;;;;;;;;;;;;;;17.09;64.39;98903.03;2074766;28;19959;-73
2022/12/17 15:11:44;;;;;;;;;;;;;;;17.11;64.20;98902.84;2072927;28;19931;-73
2022/12/17 15:12:44;;;;;;;;;;;;;;;17.11;64.20;98903.69;2076802;28;20404;-74
2022/12/17 15:13:46;;;;;;;;;;;;;;;17.11;64.16;98894.81;2079561;28;19989;-74
2022/12/17 15:14:47;;;;;;;;;;;;;;;17.09;64.21;98902.19;2078535;28;19931;-74
2022/12/17 15:15:48;;;;;;;;;;;;;;;17.06;64.20;98902.56;2077337;28;20086;-73
2022/12/17 15:16:49;;;;;;;;;;;;;;;17.05;64.39;98903.56;2076871;28;19928;-73
2022/12/17 15:17:51;;;;;;;;;;;;;;;17.06;64.20;98906.06;2071911;28;19924;-73
2022/12/17 15:18:51;;;;;;;;;;;;;;;17.04;64.32;98900.06;2075635;28;19921;-75
2022/12/17 15:19:54;;;;;;;;;;;;;;;17.07;64.37;98909.59;2075410;28;19990;-72
2022/12/17 15:20:56;;;;;;;;;;;;;;;17.05;64.30;98915.16;2076877;28;20411;-76
2022/12/17 15:21:57;;;;;;;;;;;;;;;17.04;64.24;98910.78;2069565;28;19937;-74
2022/12/17 15:22:58;;;;;;;;;;;;;;;17.05;64.40;98919.66;2080340;28;20541;-74
2022/12/17 15:24:00;;;;;;;;;;;;;;;17.04;64.38;98918.00;2068332;28;19939;-74
2022/12/17 15:25:02;;;;;;;;;;;;;;;17.05;64.37;98920.50;2082128;28;19947;-74
2022/12/17 15:26:02;;;;;;;;;;;;;;;17.05;64.25;98923.19;2082282;28;19921;-74
2022/12/17 15:27:04;;;;;;;;;;;;;;;17.01;64.46;98919.19;2080199;28;19947;-73
2022/12/17 15:28:04;;;;;;;;;;;;;;;17.02;64.32;98920.03;2082902;28;19924;-73
2022/12/17 15:29:06;;;;;;;;;;;;;;;17.03;64.18;98921.72;2081015;28;19924;-74
2022/12/17 15:30:08;;;;;;;;;;;;;;;17.05;64.28;98925.88;2081925;28;19924;-74
2022/12/17 15:31:11;;;;;;;;;;;;;;;17.00;64.35;98930.94;2080289;28;19951;-74
2022/12/17 15:32:17;;;;;;;;;;;;;;;17.05;64.29;98933.91;2077151;28;19968;-75
2022/12/17 15:33:17;;;;;;;;;;;;;;;17.03;64.38;98933.25;2072784;28;20020;-75
2022/12/17 15:34:18;;;;;;;;;;;;;;;17.05;64.27;98930.38;2082181;28;20066;-74
2022/12/17 15:35:20;;;;;;;;;;;;;;;17.05;64.27;98933.91;2080701;28;19925;-74
2022/12/17 15:36:22;;;;;;;;;;;;;;;17.05;64.27;98936.59;2076030;28;19929;-75
2022/12/17 15:37:24;;;;;;;;;;;;;;;17.05;64.27;98930.38;2076684;28;19925;-71
2022/12/17 15:38:25;;;;;;;;;;;;;;;17.04;64.29;98936.75;2075695;28;19940;-74
2022/12/17 15:39:26;;;;;;;;;;;;;;;17.02;64.40;98944.16;2078501;28;19954;-73
2022/12/17 15:40:27;;;;;;;;;;;;;;;17.03;64.24;98946.66;2077869;28;19950;-74
2022/12/17 15:43:10;;;;;;;;;;;;;;;17.01;64.43;98948.69;2045731;28;19930;-74
2022/12/17 15:44:12;;;;;;;;;;;;;;;17.02;64.36;98945.00;2047751;28;19925;-73
2022/12/17 15:45:12;;;;;;;;;;;;;;;17.02;64.14;98950.34;2077227;28;19990;-73
2022/12/17 15:46:14;;;;;;;;;;;;;;;17.01;64.41;98953.22;2074327;28;19974;-73
2022/12/17 15:47:14;;;;;;;;;;;;;;;16.97;64.58;98950.06;2075686;28;19921;-74
2022/12/17 15:48:17;;;;;;;;;;;;;;;16.97;64.44;98948.22;2079397;28;19936;-75
2022/12/17 15:49:18;;;;;;;;;;;;;;;16.96;64.58;98949.22;2080094;28;19939;-73
2022/12/17 15:50:19;;;;;;;;;;;;;;;16.98;64.47;98946.38;2080451;28;19928;-74
2022/12/17 15:51:22;;;;;;;;;;;;;;;16.96;64.48;98949.22;2071482;28;19935;-75
2022/12/17 15:52:24;;;;;;;;;;;;;;;17.01;64.35;98942.50;2077920;28;20068;-74
2022/12/17 15:53:24;;;;;;;;;;;;;;;17.02;64.40;98944.16;2076802;28;19925;-74
2022/12/17 15:54:26;;;;;;;;;;;;;;;17.00;64.40;98948.88;2077545;28;19929;-73
2022/12/17 15:55:27;;;;;;;;;;;;;;;17.00;64.42;98952.38;2072889;28;19933;-74
2022/12/17 15:56:28;;;;;;;;;;;;;;;17.02;64.34;98945.00;2075213;28;20013;-74
2022/12/17 15:57:29;;;;;;;;;;;;;;;17.00;64.25;98944.34;2076809;28;19971;-74
2022/12/17 15:58:31;;;;;;;;;;;;;;;16.97;64.55;98947.41;2078427;28;19939;-74
2022/12/17 15:59:32;;;;;;;;;;;;;;;16.96;64.43;98951.06;2077991;28;19928;-75
2022/12/17 16:00:34;;;;;;;;;;;;;;;17.00;64.43;98952.38;2079572;28;19978;-75
2022/12/17 16:01:35;;;;;;;;;;;;;;;16.99;64.39;98948.03;2078840;28;19936;-74
2022/12/17 16:02:36;;;;;;;;;;;;;;;16.97;64.49;98947.41;2070283;28;19920;-72
2022/12/17 16:03:37;;;;;;;;;;;;;;;16.97;64.55;98948.22;2077229;28;19966;-73
2022/12/17 16:04:39;;;;;;;;;;;;;;;17.00;64.46;98948.88;2075504;28;19936;-74
2022/12/17 16:05:40;;;;;;;;;;;;;;;17.00;64.50;98955.06;2077746;28;19927;-74
2022/12/17 16:06:43;;;;;;;;;;;;;;;16.95;64.62;98957.47;2076371;28;19975;-73
2022/12/17 16:07:43;;;;;;;;;;;;;;;16.96;64.52;98951.91;2076700;28;20315;-74
2022/12/17 16:08:45;;;;;;;;;;;;;;;16.97;64.32;98956.25;2073588;28;19928;-74
2022/12/17 16:09:45;;;;;;;;;;;;;;;16.96;64.70;98959.94;2077445;28;19920;-75
2022/12/17 16:10:47;;;;;;;;;;;;;;;16.97;64.54;98960.78;2079777;28;19925;-74
2022/12/17 16:11:47;;;;;;;;;;;;;;;17.00;64.43;98963.09;2078761;28;19924;-74
2022/12/17 16:12:49;;;;;;;;;;;;;;;16.97;64.45;98960.78;2072284;28;20588;-75
2022/12/17 16:13:52;;;;;;;;;;;;;;;16.99;64.47;98964.09;2079728;28;19979;-75
2022/12/17 16:14:53;;;;;;;;;;;;;;;16.96;64.56;98969.81;2079050;28;19974;-74
2022/12/17 16:15:54;;;;;;;;;;;;;;;16.98;64.57;98970.47;2080615;28;20393;-74
2022/12/17 16:16:56;;;;;;;;;;;;;;;16.98;64.54;98968.63;2080467;28;19936;-74
2022/12/17 16:17:57;;;;;;;;;;;;;;;17.00;64.43;98975.69;2080439;28;19932;-73
2022/12/17 16:18:58;;;;;;;;;;;;;;;17.01;64.45;98969.28;2079524;28;19933;-73
2022/12/17 16:20:00;;;;;;;;;;;;;;;17.02;64.39;98971.78;2077626;28;19924;-76
2022/12/17 16:21:02;;;;;;;;;;;;;;;16.99;64.47;98969.47;2075551;28;20500;-75
2022/12/17 16:22:04;;;;;;;;;;;;;;;16.98;64.45;98971.31;2077788;28;19928;-76
2022/12/17 16:23:06;;;;;;;;;;;;;;;17.00;64.47;98971.16;2082006;28;19931;-77
2022/12/17 16:24:07;;;;;;;;;;;;;;;17.01;64.36;98966.59;2076067;28;19924;-76
2022/12/17 16:25:08;;;;;;;;;;;;;;;17.02;64.25;98968.25;2080242;28;19983;-74
2022/12/17 16:26:10;;;;;;;;;;;;;;;16.97;64.32;98971.50;2080502;28;19994;-74
2022/12/17 16:27:12;;;;;;;;;;;;;;;16.97;64.42;98974.19;2081941;28;20011;-73
2022/12/17 16:28:13;;;;;;;;;;;;;;;16.95;64.56;98963.66;2080302;28;20301;-72
2022/12/17 16:29:14;;;;;;;;;;;;;;;16.96;64.48;98969.81;2077240;28;20016;-75
2022/12/17 16:30:16;;;;;;;;;;;;;;;16.94;64.61;98967.34;2074315;28;19968;-75
2022/12/17 16:31:16;;;;;;;;;;;;;;;16.96;64.48;98976.00;2075543;28;19921;-77
2022/12/17 16:32:18;;;;;;;;;;;;;;;16.94;64.53;98980.75;2078301;28;19928;-75
2022/12/17 16:33:18;;;;;;;;;;;;;;;16.98;64.44;98981.22;2064145;28;19924;-78
2022/12/17 16:34:20;;;;;;;;;;;;;;;16.96;64.49;98981.38;2074833;28;20050;-73
2022/12/17 16:35:22;;;;;;;;;;;;;;;17.02;64.53;98984.34;2077911;28;19933;-74
2022/12/17 16:36:23;;;;;;;;;;;;;;;17.01;64.54;98988.88;2073219;28;19925;-74
2022/12/17 16:37:26;;;;;;;;;;;;;;;16.97;64.51;98984.91;2074371;28;19925;-74
2022/12/17 16:38:26;;;;;;;;;;;;;;;16.95;64.70;98992.28;2078166;28;19974;-73
2022/12/17 16:39:28;;;;;;;;;;;;;;;16.97;64.52;98992.94;2078357;28;19932;-76
2022/12/17 16:40:29;;;;;;;;;;;;;;;16.97;64.55;99001.81;2079096;28;20472;-76
2022/12/17 16:41:30;;;;;;;;;;;;;;;16.95;64.72;99000.34;2066498;28;20030;-73
2022/12/17 16:42:31;;;;;;;;;;;;;;;16.95;64.60;98990.44;2078360;28;19932;-74
2022/12/17 16:43:34;;;;;;;;;;;;;;;16.92;64.84;98998.84;2078194;28;20160;-73
2022/12/17 16:44:35;;;;;;;;;;;;;;;16.94;64.73;98993.31;2077868;28;19924;-72
2022/12/17 16:45:45;;;;;;;;;;;;;;;16.94;64.78;99004.03;2075167;28;20051;-73
2022/12/17 16:46:46;;;;;;;;;;;;;;;16.93;64.72;98997.00;2079232;28;19965;-74
2022/12/17 16:47:47;;;;;;;;;;;;;;;16.91;64.70;98999.00;2076889;28;20496;-73
2022/12/17 16:48:48;;;;;;;;;;;;;;;16.91;64.82;99007.91;2076829;28;19975;-73
2022/12/17 16:49:49;;;;;;;;;;;;;;;16.91;64.73;99005.22;2072778;28;20991;-75
2022/12/17 16:50:51;;;;;;;;;;;;;;;16.92;64.74;99006.06;2079652;28;19928;-74
2022/12/17 16:51:52;;;;;;;;;;;;;;;16.93;64.71;99013.06;2078845;28;19928;-75
2022/12/17 16:52:55;;;;;;;;;;;;;;;16.91;64.68;99015.94;2076780;28;19947;-74
2022/12/17 16:53:56;;;;;;;;;;;;;;;16.91;64.92;99015.94;2078150;28;19994;-74
2022/12/17 16:54:58;;;;;;;;;;;;;;;16.93;64.77;99018.44;2078438;28;21384;-73
2022/12/17 16:55:59;;;;;;;;;;;;;;;16.92;64.79;99020.28;2081360;28;20518;-75
2022/12/17 16:57:00;;;;;;;;;;;;;;;16.90;64.73;99019.63;2076357;28;19964;-74
2022/12/17 16:58:01;;;;;;;;;;;;;;;16.92;64.78;99022.13;2076938;28;20044;-75
2022/12/17 16:59:03;;;;;;;;;;;;;;;16.92;64.68;99030.19;2075581;28;19928;-75
2022/12/17 17:00:05;;;;;;;;;;;;;;;16.93;64.70;99029.97;2077071;28;19925;-72
2022/12/17 17:01:06;;;;;;;;;;;;;;;17.04;64.92;99030.53;2077099;28;20565;-71
2022/12/17 17:02:11;;;;;;;;;;;;;;;17.08;64.51;99037.22;2072716;28;20018;-76
2022/12/17 17:03:12;;;;;;;;;;;;;;;17.07;65.09;99030.19;2076019;28;21722;-79
2022/12/17 17:04:14;;;;;;;;;;;;;;;17.16;65.10;99031.75;2075714;28;19929;-76
2022/12/17 17:05:15;;;;;;;;;;;;;;;17.17;65.30;99031.56;2078411;28;20547;-76
2022/12/17 17:06:16;;;;;;;;;;;;;;;17.18;65.12;99035.91;2080441;28;19929;-76
2022/12/17 17:07:18;;;;;;;;;;;;;;;17.18;65.16;99037.75;2080708;28;19928;-76
2022/12/17 17:08:20;;;;;;;;;;;;;;;17.14;64.83;99031.94;2079627;28;19921;-76
2022/12/17 17:09:22;;;;;;;;;;;;;;;17.11;65.23;99036.84;2081630;28;19925;-76
2022/12/17 17:10:23;;;;;;;;;;;;;;;17.08;65.33;99042.59;2079774;28;19925;-79
2022/12/17 17:11:25;;;;;;;;;;;;;;;17.03;65.29;99045.81;2080854;28;19978;-77
2022/12/17 17:12:26;;;;;;;;;;;;;;;17.01;65.32;99042.47;2080542;28;19943;-79
2022/12/17 17:13:27;;;;;;;;;;;;;;;16.98;65.47;99048.19;2082330;28;19931;-78
2022/12/17 17:14:28;;;;;;;;;;;;;;;16.96;65.40;99048.38;2073532;28;20420;-76
2022/12/17 17:15:29;;;;;;;;;;;;;;;16.93;65.57;99047.91;2081871;28;19931;-78
2022/12/17 17:16:30;;;;;;;;;;;;;;;16.93;65.45;99045.22;2080793;28;19928;-77
2022/12/17 17:17:31;;;;;;;;;;;;;;;16.93;65.50;99053.25;2079886;28;19920;-80
2022/12/17 17:18:32;;;;;;;;;;;;;;;16.91;65.49;99048.09;2079475;28;19962;-75
2022/12/17 17:19:34;;;;;;;;;;;;;;;16.91;65.63;99057.97;2080211;28;19971;-78
2022/12/17 17:20:34;;;;;;;;;;;;;;;16.91;65.38;99053.47;2082534;28;19920;-77
2022/12/17 17:21:37;;;;;;;;;;;;;;;16.92;65.36;99056.97;2082122;28;20031;-79
2022/12/17 17:22:38;;;;;;;;;;;;;;;16.91;65.41;99063.31;2084117;28;19928;-79
2022/12/17 17:23:40;;;;;;;;;;;;;;;16.90;65.36;99064.34;2081479;28;19925;-77
2022/12/17 17:24:42;;;;;;;;;;;;;;;16.91;65.34;99063.31;2083190;28;19925;-77
2022/12/17 17:25:43;;;;;;;;;;;;;;;16.91;65.33;99066.00;2082436;28;20012;-78
2022/12/17 17:26:44;;;;;;;;;;;;;;;16.91;65.35;99063.31;2084103;28;19980;-79
2022/12/17 17:27:44;;;;;;;;;;;;;;;16.90;65.31;99065.19;2081119;28;19920;-75
2022/12/17 17:28:46;;;;;;;;;;;;;;;16.92;65.11;99060.47;2083960;28;19924;-75
2022/12/17 17:29:48;;;;;;;;;;;;;;;16.91;65.27;99072.22;2083140;28;19983;-77
2022/12/17 17:30:48;;;;;;;;;;;;;;;16.91;65.19;99060.63;2084149;28;19971;-78
2022/12/17 17:31:50;;;;;;;;;;;;;;;16.90;65.27;99067.03;2083306;28;19925;-76
2022/12/17 17:32:50;;;;;;;;;;;;;;;16.88;65.23;99069.91;2084227;28;19929;-78
2022/12/17 17:33:52;;;;;;;;;;;;;;;16.90;65.19;99070.53;2083247;28;19921;-77
2022/12/17 17:34:52;;;;;;;;;;;;;;;16.90;65.11;99073.22;2082972;28;19990;-76
2022/12/17 17:35:54;;;;;;;;;;;;;;;16.90;65.22;99070.53;2083318;28;19920;-79
2022/12/17 17:36:54;;;;;;;;;;;;;;;16.91;65.11;99074.91;2084974;28;20338;-79
2022/12/17 17:37:56;;;;;;;;;;;;;;;16.88;65.28;99082.44;2082901;28;20035;-76
2022/12/17 17:39:00;;;;;;;;;;;;;;;16.87;65.24;99072.75;2083080;28;20438;-77
2022/12/17 17:40:01;;;;;;;;;;;;;;;16.87;65.35;99078.09;2081979;28;20492;-78
2022/12/17 17:41:03;;;;;;;;;;;;;;;16.87;65.21;99084.28;2082172;28;19920;-77
2022/12/17 17:42:05;;;;;;;;;;;;;;;16.87;65.29;99083.47;2082777;28;19931;-78
2022/12/17 17:43:06;;;;;;;;;;;;;;;16.87;65.31;99088.81;2084339;28;19928;-78
2022/12/17 17:44:10;;;;;;;;;;;;;;;16.89;65.23;99086.81;2081179;28;19924;-77
2022/12/17 17:45:11;;;;;;;;;;;;;;;16.88;65.13;99080.63;2083275;28;20438;-78
2022/12/17 17:46:13;;;;;;;;;;;;;;;16.89;65.19;99086.81;2082376;28;19978;-79
2022/12/17 17:47:13;;;;;;;;;;;;;;;16.88;65.18;99085.97;2083397;28;20058;-77
2022/12/17 17:48:15;;;;;;;;;;;;;;;16.87;65.23;99086.16;2080684;28;20038;-78
2022/12/17 17:49:17;;;;;;;;;;;;;;;16.85;65.19;99090.84;2082736;28;19932;-78
2022/12/17 17:50:17;;;;;;;;;;;;;;;16.84;65.29;99086.50;2082455;28;20607;-77
2022/12/17 17:51:20;;;;;;;;;;;;;;;16.86;65.21;99088.00;2082100;28;19921;-78
2022/12/17 17:52:20;;;;;;;;;;;;;;;16.87;65.20;99091.50;2075234;28;19936;-78
2022/12/17 17:53:22;;;;;;;;;;;;;;;16.87;65.12;99086.97;2078352;28;20250;-79
2022/12/17 17:54:24;;;;;;;;;;;;;;;16.87;65.17;99089.66;2082735;28;19921;-78
2022/12/17 17:55:25;;;;;;;;;;;;;;;16.88;65.02;99096.69;2082793;28;19987;-77
2022/12/17 17:56:28;;;;;;;;;;;;;;;16.87;65.06;99100.38;2083180;28;19971;-81
2022/12/17 17:57:29;;;;;;;;;;;;;;;16.89;65.03;99097.53;2082606;28;21935;-78
2022/12/17 17:58:30;;;;;;;;;;;;;;;16.89;65.08;99094.84;2081707;28;19931;-80
2022/12/17 17:59:31;;;;;;;;;;;;;;;16.91;64.93;99103.50;2078675;28;19924;-76
2022/12/17 18:00:32;;;;;;;;;;;;;;;16.89;65.07;99100.19;2082712;28;19921;-77
2022/12/17 18:01:34;;;;;;;;;;;;;;;16.89;64.99;99103.72;2079894;28;20028;-78
2022/12/17 18:02:35;;;;;;;;;;;;;;;16.88;65.06;99107.41;2083242;28;19935;-77
2022/12/17 18:03:36;;;;;;;;;;;;;;;16.86;65.04;99103.25;2082401;28;19924;-77
2022/12/17 18:04:38;;;;;;;;;;;;;;;16.84;65.14;99103.41;2081715;28;19921;-77
2022/12/17 18:05:41;;;;;;;;;;;;;;;16.85;65.18;99109.59;2082273;28;19925;-77
2022/12/17 18:06:43;;;;;;;;;;;;;;;16.84;65.12;99110.63;2082386;28;19986;-77
2022/12/17 18:07:45;;;;;;;;;;;;;;;16.85;65.06;99114.97;2081834;28;20130;-78
2022/12/17 18:08:46;;;;;;;;;;;;;;;16.87;65.21;99120.97;2082578;28;19921;-77
2022/12/17 18:09:48;;;;;;;;;;;;;;;16.86;64.97;99124.69;2081113;28;20580;-77
2022/12/17 18:10:56;;;;;;;;;;;;;;;16.87;64.98;99120.97;2082644;28;20370;-77
2022/12/17 18:13:53;;;;;;;;;;;;;;;16.86;65.09;99127.34;2081548;28;20073;-75
2022/12/17 18:14:37;;;;;;;;;;;;;;;16.83;65.13;99133.91;2080356;28;20019;-76
2022/12/17 18:15:38;;;;;;;;;;;;;;;16.85;65.09;99139.06;2081614;28;19931;-77
2022/12/17 18:16:41;;;;;;;;;;;;;;;16.85;65.11;99133.72;2078485;28;19935;-77
2022/12/17 18:17:42;;;;;;;;;;;;;;;16.83;65.24;99139.25;2080150;28;20455;-76
2022/12/17 18:18:44;;;;;;;;;;;;;;;16.83;65.25;99141.94;2082361;28;22133;-75
2022/12/17 18:19:47;;;;;;;;;;;;;;;16.83;65.17;99138.44;2082052;28;19971;-73
2022/12/17 18:20:48;;;;;;;;;;;;;;;16.81;65.19;99141.28;2082366;28;20407;-75
2022/12/17 18:21:49;;;;;;;;;;;;;;;16.80;65.12;99142.31;2081056;28;20317;-75
2022/12/17 18:22:51;;;;;;;;;;;;;;;16.80;65.25;99142.31;2081322;28;20443;-75
2022/12/17 18:23:55;;;;;;;;;;;;;;;16.83;65.19;99149.16;2079928;28;19944;-74
2022/12/17 18:24:58;;;;;;;;;;;;;;;16.83;65.16;99141.94;2072940;28;19929;-76
2022/12/17 18:26:06;;;;;;;;;;;;;;;16.84;65.06;99148.13;2078581;28;19925;-75
2022/12/17 18:27:07;;;;;;;;;;;;;;;16.83;65.18;99147.31;2081345;28;19939;-75
2022/12/17 18:28:08;;;;;;;;;;;;;;;16.84;65.24;99146.28;2082622;28;20293;-76
2022/12/17 18:29:10;;;;;;;;;;;;;;;16.82;65.03;99150.16;2080699;28;19925;-76
2022/12/17 18:30:11;;;;;;;;;;;;;;;16.81;65.22;99151.16;2079464;28;19924;-77
2022/12/17 18:31:14;;;;;;;;;;;;;;;16.83;65.11;99157.19;2081651;28;20346;-76
2022/12/17 18:32:14;;;;;;;;;;;;;;;16.82;65.18;99155.50;2083325;28;19921;-77
2022/12/17 18:33:17;;;;;;;;;;;;;;;16.81;65.16;99164.56;2081595;28;19944;-75
2022/12/17 18:34:19;;;;;;;;;;;;;;;16.81;65.16;99169.94;2079761;28;19927;-75
2022/12/17 18:35:20;;;;;;;;;;;;;;;16.84;65.29;99164.19;2082529;28;19925;-74
2022/12/17 18:36:23;;;;;;;;;;;;;;;16.86;65.04;99162.19;2083283;28;19980;-75